Time;durP1;ratioP1;P1;durP2;ratioP2;P2;SDS_P1;SDS_P2;PMS_P1;PMS_P2;Temp;Humidity;BMP_temperature;BMP_pressure;BME280_temperature;BME280_humidity;BME280_pressure;Samples;Min_cycle;Max_cycle;Signal;HPM_P1;HPM_P2
2022/08/11 00:01:15;;;;;;;6.68;1.65;;;23.60;98.20;;;;;;5013313;28;20188;-80
2022/08/11 00:03:47;;;;;;;7.90;1.73;;;23.60;98.30;;;;;;5013423;28;20196;-80
2022/08/11 00:06:21;;;;;;;5.15;2.15;;;23.50;98.30;;;;;;5012169;28;20699;-80
2022/08/11 00:08:49;;;;;;;3.78;2.00;;;23.50;98.40;;;;;;5013084;28;20211;-80
2022/08/11 00:11:16;;;;;;;2.38;1.67;;;23.40;98.60;;;;;;5012139;28;20280;-80
2022/08/11 00:13:44;;;;;;;14.85;2.13;;;23.50;98.40;;;;;;5013271;28;20173;-80
2022/08/11 00:16:12;;;;;;;5.38;1.63;;;23.50;98.50;;;;;;5013068;28;20259;-79
2022/08/11 00:18:51;;;;;;;5.10;1.80;;;23.30;98.70;;;;;;5013307;28;20236;-80
2022/08/11 00:21:19;;;;;;;7.00;1.40;;;23.20;99.00;;;;;;5013039;28;20200;-79
2022/08/11 00:23:52;;;;;;;2.03;1.77;;;23.10;99.00;;;;;;5013048;28;20192;-80
2022/08/11 00:26:18;;;;;;;2.65;1.90;;;23.10;99.20;;;;;;5012953;28;20173;-80
2022/08/11 00:28:44;;;;;;;11.05;2.38;;;23.20;99.10;;;;;;5012061;28;20287;-83
2022/08/11 00:31:29;;;;;;;2.22;1.50;;;23.30;98.90;;;;;;5012805;28;20287;-80
2022/08/11 00:33:57;;;;;;;5.03;1.80;;;23.40;98.90;;;;;;5011804;28;20164;-81
2022/08/11 00:36:28;;;;;;;2.45;1.40;;;23.40;98.80;;;;;;5012945;28;20165;-81
2022/08/11 00:39:01;;;;;;;6.03;1.60;;;23.40;98.80;;;;;;5012811;28;20179;-80
2022/08/11 00:41:54;;;;;;;5.07;1.95;;;23.30;98.90;;;;;;5012749;28;20200;-80
2022/08/11 00:44:55;;;;;;;9.38;2.00;;;23.20;99.10;;;;;;5012920;28;20180;-80
2022/08/11 00:47:30;;;;;;;9.75;1.52;;;23.00;99.40;;;;;;5011668;28;20207;-81
2022/08/11 00:50:07;;;;;;;5.22;1.75;;;22.80;99.80;;;;;;5012213;28;20192;-81
2022/08/11 00:52:52;;;;;;;3.63;1.70;;;22.90;99.70;;;;;;5012587;28;20164;-80
2022/08/11 00:55:50;;;;;;;8.68;1.90;;;22.90;99.70;;;;;;5012503;28;20161;-81
2022/08/11 00:58:28;;;;;;;2.92;1.90;;;22.80;99.90;;;;;;5000152;28;20537;-80
2022/08/11 01:00:56;;;;;;;4.65;1.60;;;22.70;99.90;;;;;;5012057;28;20271;-81
2022/08/11 01:03:50;;;;;;;2.10;1.90;;;22.50;99.90;;;;;;5011043;28;20540;-80
2022/08/11 01:06:28;;;;;;;5.63;2.03;;;22.60;99.90;;;;;;5012395;28;20176;-80
2022/08/11 01:09:16;;;;;;;2.08;1.88;;;22.70;99.90;;;;;;5012294;28;20215;-80
2022/08/11 01:11:56;;;;;;;3.35;1.75;;;22.70;99.90;;;;;;5012355;28;20191;-80
2022/08/11 01:14:44;;;;;;;10.35;2.22;;;22.50;99.90;;;;;;5011534;28;20165;-80
2022/08/11 01:17:39;;;;;;;2.53;1.60;;;22.50;99.90;;;;;;5012304;28;20645;-81
2022/08/11 01:20:18;;;;;;;9.88;2.22;;;22.50;99.90;;;;;;5002616;28;20557;-80
2022/08/11 01:23:13;;;;;;;6.85;1.73;;;22.50;99.90;;;;;;5010832;28;20246;-80
2022/08/11 01:26:01;;;;;;;9.07;2.10;;;22.50;99.90;;;;;;5012184;28;20164;-80
2022/08/11 01:28:55;;;;;;;7.57;2.00;;;22.60;99.90;;;;;;5010855;28;20806;-80
2022/08/11 01:31:58;;;;;;;3.90;1.70;;;22.50;99.90;;;;;;5010957;28;20258;-81
2022/08/11 01:34:42;;;;;;;3.13;1.92;;;22.40;99.90;;;;;;5012193;28;20172;-80
2022/08/11 01:37:27;;;;;;;2.78;2.05;;;22.30;99.90;;;;;;5012435;28;20173;-81
2022/08/11 01:40:28;;;;;;;2.67;1.77;;;22.20;99.90;;;;;;5012281;28;20180;-80
2022/08/11 01:46:08;;;;;;;4.05;2.00;;;22.30;99.90;;;;;;5012379;28;20184;-80
2022/08/11 01:49:23;;;;;;;5.35;2.00;;;22.20;99.90;;;;;;5012259;28;20208;-80
2022/08/11 01:52:14;;;;;;;6.00;2.42;;;22.20;99.90;;;;;;5007167;28;20193;-81
2022/08/11 01:54:48;;;;;;;11.90;2.00;;;22.20;99.90;;;;;;5011978;28;20182;-80
2022/08/11 01:57:37;;;;;;;3.00;2.20;;;22.20;99.90;;;;;;5010857;28;20177;-80
2022/08/11 02:00:14;;;;;;;13.00;2.00;;;22.00;99.90;;;;;;5011708;28;20199;-80
2022/08/11 02:03:16;;;;;;;2.03;1.50;;;22.00;99.90;;;;;;5014978;28;20190;-80
2022/08/11 02:06:53;;;;;;;11.93;2.08;;;22.00;99.90;;;;;;5016349;28;20711;-80
2022/08/11 02:09:06;;;;;;;12.15;2.50;;;21.90;99.90;;;;;;5015567;28;20216;-80
2022/08/11 02:11:35;;;;;;;8.82;1.98;;;22.00;99.90;;;;;;5014227;28;20195;-80
2022/08/11 02:14:19;;;;;;;4.57;1.90;;;21.90;99.90;;;;;;5014309;28;20180;-79
2022/08/11 02:17:03;;;;;;;5.22;2.08;;;21.90;99.90;;;;;;5014271;28;20173;-80
2022/08/11 02:25:54;;;;;;;2.35;2.08;;;21.80;99.90;;;;;;5015472;28;20216;-80
2022/08/11 02:28:45;;;;;;;2.20;2.03;;;21.60;99.90;;;;;;5015425;28;20291;-80
2022/08/11 02:34:55;;;;;;;4.10;2.20;;;21.40;99.90;;;;;;5015547;28;20191;-81
2022/08/11 02:37:32;;;;;;;1.85;1.73;;;21.50;99.90;;;;;;5014022;28;20707;-80
2022/08/11 02:39:58;;;;;;;3.15;2.00;;;21.60;99.90;;;;;;5015079;28;20215;-80
2022/08/11 02:43:06;;;;;;;6.60;2.13;;;21.60;99.90;;;;;;5013840;28;20560;-80
2022/08/11 02:45:54;;;;;;;10.70;2.17;;;21.50;99.90;;;;;;5011557;28;20199;-80
2022/08/11 02:51:52;;;;;;;22.40;2.58;;;21.00;99.90;;;;;;5014536;28;20202;-80
2022/08/11 02:54:42;;;;;;;3.88;2.25;;;21.00;99.90;;;;;;5014583;28;20169;-80
2022/08/11 02:57:46;;;;;;;3.95;2.17;;;21.10;99.90;;;;;;5013330;28;20628;-80
2022/08/11 03:00:14;;;;;;;4.53;1.88;;;21.10;99.90;;;;;;5013281;28;20223;-81
2022/08/11 03:03:16;;;;;;;4.15;2.10;;;21.10;99.90;;;;;;5014763;28;20184;-80
2022/08/11 03:05:53;;;;;;;8.75;2.13;;;21.00;99.90;;;;;;4992478;28;20210;-80
2022/08/11 03:08:38;;;;;;;2.58;1.98;;;20.90;99.90;;;;;;5007724;28;20220;-81
2022/08/11 03:17:38;;;;;;;3.30;3.00;;;20.90;99.90;;;;;;5014658;28;20219;-81
2022/08/11 03:20:10;;;;;;;3.13;1.83;;;21.00;99.90;;;;;;5014277;28;20195;-80
2022/08/11 03:23:02;;;;;;;3.25;1.88;;;21.10;99.90;;;;;;5014058;28;20183;-81
2022/08/11 03:25:36;;;;;;;4.80;2.28;;;21.10;99.90;;;;;;5003751;28;20183;-81
2022/08/11 03:28:20;;;;;;;8.40;1.98;;;20.90;99.90;;;;;;5014155;28;20303;-81
2022/08/11 03:30:55;;;;;;;4.53;2.65;;;20.90;99.90;;;;;;5014143;28;20196;-82
2022/08/11 03:36:49;;;;;;;6.22;2.20;;;20.70;99.90;;;;;;5013860;28;20565;-80
2022/08/11 03:39:29;;;;;;;2.30;2.10;;;20.70;99.90;;;;;;5016090;28;20305;-82
2022/08/11 03:42:10;;;;;;;5.80;2.88;;;20.60;99.90;;;;;;5022289;28;20173;-82
2022/08/11 03:44:56;;;;;;;5.38;2.47;;;20.60;99.90;;;;;;5027738;28;20168;-81
2022/08/11 03:47:41;;;;;;;3.10;2.72;;;20.50;99.90;;;;;;5027323;28;20168;-82
2022/08/11 03:50:22;;;;;;;5.72;2.80;;;20.40;99.90;;;;;;5022405;28;20195;-82
2022/08/11 03:52:56;;;;;;;6.60;2.50;;;20.30;99.90;;;;;;5025097;28;20180;-82
2022/08/11 03:56:05;;;;;;;11.30;3.35;;;20.40;99.90;;;;;;5017831;28;20200;-81
2022/08/11 03:58:39;;;;;;;7.32;2.70;;;20.50;99.90;;;;;;5013295;28;20208;-81
2022/08/11 04:01:18;;;;;;;3.90;2.65;;;20.70;99.90;;;;;;5014576;28;20197;-81
2022/08/11 04:04:28;;;;;;;4.13;2.78;;;20.60;99.90;;;;;;5014490;28;20182;-82
2022/08/11 04:07:40;;;;;;;7.45;2.78;;;20.50;99.90;;;;;;5009566;28;20184;-81
2022/08/11 04:10:27;;;;;;;7.78;2.45;;;20.40;99.90;;;;;;5011601;28;20204;-81
2022/08/11 04:13:14;;;;;;;8.30;3.00;;;20.30;99.90;;;;;;5011718;28;20507;-81
2022/08/11 04:16:01;;;;;;;10.57;2.83;;;20.20;99.90;;;;;;5013171;28;20179;-81
2022/08/11 04:18:42;;;;;;;12.38;2.65;;;20.20;99.90;;;;;;5013487;28;20167;-81
2022/08/11 04:21:39;;;;;;;4.10;2.58;;;20.20;99.90;;;;;;5012909;28;20199;-81
2022/08/11 04:24:26;;;;;;;3.95;2.63;;;20.30;99.90;;;;;;5012878;28;20172;-81
2022/08/11 04:27:33;;;;;;;8.98;2.80;;;20.20;99.90;;;;;;5011357;28;20200;-82
2022/08/11 04:30:16;;;;;;;6.65;3.08;;;20.20;99.90;;;;;;5010771;28;20216;-82
2022/08/11 04:33:06;;;;;;;10.82;3.22;;;20.10;99.90;;;;;;5011416;28;20180;-82
2022/08/11 04:35:42;;;;;;;9.93;2.65;;;20.00;99.90;;;;;;5012763;28;20164;-81
2022/08/11 04:38:26;;;;;;;10.93;2.83;;;19.90;99.90;;;;;;5011511;28;20179;-81
2022/08/11 04:41:30;;;;;;;7.78;2.85;;;20.00;99.90;;;;;;5012768;28;20238;-81
2022/08/11 04:44:17;;;;;;;10.57;2.72;;;20.20;99.90;;;;;;5012633;28;20176;-81
2022/08/11 05:01:39;;;;;;;5.13;2.75;;;20.40;99.90;;;;;;5011468;28;20179;-81
2022/08/11 05:02:50;;;;;;;5.05;2.47;;;20.20;99.90;;;;;;5013034;28;20191;-81
2022/08/11 05:05:37;;;;;;;4.13;3.22;;;20.20;99.90;;;;;;5011082;28;20544;-82
2022/08/11 05:08:28;;;;;;;10.70;2.60;;;20.20;99.90;;;;;;5011207;28;20699;-81
2022/08/11 05:11:18;;;;;;;8.68;3.45;;;20.30;99.90;;;;;;5012469;28;20180;-81
2022/08/11 05:36:49;;;;;;;9.20;3.63;;;20.20;99.90;;;;;;5013753;28;20238;-81
2022/08/11 05:56:18;;;;;;;13.32;3.38;;;20.70;99.90;;;;;;5015965;28;20592;-82
2022/08/11 05:58:49;;;;;;;12.52;3.30;;;20.70;99.90;;;;;;5014683;28;20168;-82
2022/08/11 06:01:22;;;;;;;12.02;3.25;;;20.70;99.90;;;;;;5014258;28;20200;-82
2022/08/11 06:06:40;;;;;;;14.18;3.88;;;21.00;99.90;;;;;;5016046;28;20263;-82
2022/08/11 06:09:07;;;;;;;15.63;3.22;;;21.30;99.90;;;;;;5014356;28;20196;-81
2022/08/11 06:11:41;;;;;;;9.27;4.10;;;21.20;99.90;;;;;;5015725;28;20657;-81
2022/08/11 06:14:11;;;;;;;19.95;4.15;;;21.10;99.90;;;;;;5015647;28;20184;-81
2022/08/11 06:16:39;;;;;;;9.45;4.15;;;21.20;99.90;;;;;;5015174;28;20156;-81
2022/08/11 06:19:07;;;;;;;8.32;3.85;;;21.30;99.90;;;;;;5015544;28;20203;-81
2022/08/11 06:21:35;;;;;;;11.90;3.78;;;21.40;99.90;;;;;;5015504;28;20188;-79
2022/08/11 06:24:11;;;;;;;19.50;5.22;;;21.30;99.90;;;;;;5015729;28;20275;-81
2022/08/11 06:26:37;;;;;;;6.63;3.90;;;21.50;99.90;;;;;;5015237;28;20168;-81
2022/08/11 06:29:04;;;;;;;4.45;3.55;;;21.70;99.90;;;;;;5015557;28;20212;-80
2022/08/11 06:31:32;;;;;;;17.80;3.95;;;21.70;99.90;;;;;;5013926;28;20199;-80
2022/08/11 06:34:02;;;;;;;17.85;4.13;;;21.70;99.90;;;;;;5014102;28;20663;-81
2022/08/11 06:36:28;;;;;;;11.45;3.60;;;21.90;99.90;;;;;;5014872;28;20173;-82
2022/08/11 06:39:07;;;;;;;8.45;3.97;;;21.80;99.90;;;;;;5014807;28;20285;-81
2022/08/11 06:41:37;;;;;;;16.48;3.33;;;22.00;99.90;;;;;;5013684;28;20199;-82
2022/08/11 06:44:17;;;;;;;16.13;3.42;;;22.00;99.90;;;;;;5014717;28;20161;-81
2022/08/11 06:46:47;;;;;;;27.80;4.43;;;21.90;99.90;;;;;;5015019;28;20173;-81
2022/08/11 06:52:08;;;;;;;10.55;4.10;;;22.10;99.90;;;;;;5015590;28;20200;-81
2022/08/11 06:54:40;;;;;;;17.30;4.80;;;22.40;99.90;;;;;;5013694;28;20529;-82
2022/08/11 07:02:45;;;;;;;26.20;4.28;;;23.00;99.90;;;;;;5015203;28;20187;-81
2022/08/11 07:05:36;;;;;;;9.63;3.92;;;22.90;99.90;;;;;;5014140;28;20172;-82
2022/08/11 07:17:19;;;;;;;23.33;3.63;;;23.00;99.90;;;;;;5010505;28;20231;-81
2022/08/11 07:31:13;;;;;;;7.30;3.03;;;24.80;99.90;;;;;;4994321;28;20204;-82
2022/08/11 07:33:41;;;;;;;20.60;3.20;;;25.40;99.90;;;;;;5026853;28;20249;-82
2022/08/11 07:36:11;;;;;;;7.20;2.95;;;25.60;99.90;;;;;;5032752;28;20175;-83
2022/08/11 07:38:49;;;;;;;13.63;3.20;;;25.70;99.90;;;;;;5032569;28;20195;-82
2022/08/11 07:41:17;;;;;;;8.65;3.25;;;25.50;99.90;;;;;;5032593;28;20231;-82
2022/08/11 07:43:48;;;;;;;14.77;3.60;;;25.40;99.90;;;;;;5032491;28;20191;-83
2022/08/11 07:54:32;;;;;;;2.97;2.67;;;25.00;99.90;;;;;;5033867;28;20287;-82
2022/08/11 07:56:59;;;;;;;10.32;3.92;;;24.90;99.90;;;;;;5033361;28;20216;-82
2022/08/11 08:18:42;;;;;;;15.05;3.65;;;25.70;99.90;;;;;;5033038;28;20210;-81
2022/08/11 08:21:13;;;;;;;8.73;2.70;;;25.70;99.90;;;;;;5033091;28;20191;-81
2022/08/11 08:23:44;;;;;;;16.25;3.45;;;25.80;99.90;;;;;;5033026;28;20632;-81
2022/08/11 08:31:48;;;;;;;9.00;2.88;;;26.50;99.90;;;;;;5032879;28;20179;-81
2022/08/11 08:34:15;;;;;;;14.70;2.70;;;26.60;99.90;;;;;;5032665;28;20160;-81
2022/08/11 08:36:50;;;;;;;9.73;2.65;;;26.80;99.90;;;;;;5032812;28;20255;-81
2022/08/11 08:39:22;;;;;;;7.30;3.10;;;27.00;99.90;;;;;;5032833;28;20174;-83
2022/08/11 08:41:54;;;;;;;2.58;2.38;;;27.20;99.90;;;;;;5033015;28;20168;-81
2022/08/11 08:44:23;;;;;;;8.98;2.50;;;27.20;99.90;;;;;;5031297;28;20175;-81
2022/08/11 08:46:53;;;;;;;5.45;2.65;;;27.40;99.00;;;;;;5031063;28;20663;-82
2022/08/11 08:49:26;;;;;;;24.27;3.13;;;27.50;98.60;;;;;;5032310;28;20208;-82
2022/08/11 08:51:55;;;;;;;2.60;2.40;;;27.40;98.60;;;;;;5031411;28;20195;-82
2022/08/11 08:54:26;;;;;;;9.95;2.83;;;27.60;98.00;;;;;;5031191;28;20688;-82
2022/08/11 08:56:55;;;;;;;10.85;2.78;;;27.60;97.50;;;;;;5032248;28;20239;-82
2022/08/11 08:59:23;;;;;;;3.33;2.60;;;27.60;97.30;;;;;;5031033;28;20160;-83
2022/08/11 09:02:02;;;;;;;13.63;2.53;;;27.60;97.50;;;;;;5030921;28;20305;-82
2022/08/11 09:04:29;;;;;;;7.88;2.72;;;27.60;96.50;;;;;;5030924;28;20171;-82
2022/08/11 09:06:59;;;;;;;8.38;2.58;;;27.70;96.30;;;;;;5030781;28;20168;-82
2022/08/11 09:09:26;;;;;;;13.13;2.17;;;27.80;95.60;;;;;;5032092;28;20211;-82
2022/08/11 09:11:52;;;;;;;3.05;2.35;;;27.80;95.60;;;;;;5031642;28;20600;-81
2022/08/11 09:17:22;;;;;;;9.10;2.70;;;27.90;95.90;;;;;;5032400;28;20210;-82
2022/08/11 09:19:57;;;;;;;6.43;2.20;;;27.90;94.80;;;;;;5030932;28;20241;-82
2022/08/11 09:27:55;;;;;;;5.22;2.42;;;28.40;95.20;;;;;;5032497;28;20249;-82
2022/08/11 09:30:24;;;;;;;6.78;2.03;;;28.30;94.80;;;;;;5030895;28;20200;-82
2022/08/11 09:32:56;;;;;;;14.00;2.97;;;28.20;94.00;;;;;;5030710;28;20176;-82
2022/08/11 09:35:35;;;;;;;8.23;2.22;;;28.10;94.20;;;;;;5032021;28;20171;-82
2022/08/11 09:40:48;;;;;;;13.10;2.67;;;28.30;94.00;;;;;;5032333;28;20202;-82
2022/08/11 09:46:05;;;;;;;6.65;2.45;;;28.60;93.60;;;;;;5032293;28;20541;-82
2022/08/11 09:48:37;;;;;;;2.58;2.13;;;28.70;93.50;;;;;;5032457;28;20617;-82
2022/08/11 09:51:04;;;;;;;8.60;2.83;;;28.90;93.00;;;;;;5032272;28;20188;-82
2022/08/11 09:53:33;;;;;;;3.78;1.80;;;28.90;93.10;;;;;;5032321;28;20254;-82
2022/08/11 09:58:12;;;;;;;3.22;2.65;;;28.80;93.00;;;;;;5031009;28;20164;-82
2022/08/11 09:58:46;;;;;;;18.08;3.05;;;28.80;92.60;;;;;;5032143;28;20195;-82
2022/08/11 10:01:25;;;;;;;3.92;2.28;;;28.70;92.70;;;;;;5031079;28;20219;-81
2022/08/11 10:04:15;;;;;;;6.13;2.40;;;28.70;92.30;;;;;;5032369;28;20569;-81
2022/08/11 10:07:02;;;;;;;9.63;2.65;;;28.70;92.50;;;;;;5025127;28;20187;-86
2022/08/11 10:09:49;;;;;;;4.07;2.10;;;28.60;93.00;;;;;;5032041;28;20672;-81
2022/08/11 10:12:23;;;;;;;6.57;3.20;;;28.80;92.30;;;;;;5030919;28;20194;-81
2022/08/11 10:18:40;;;;;;;8.05;2.67;;;28.90;91.50;;;;;;5031756;28;20738;-81
2022/08/11 10:20:34;;;;;;;2.50;2.05;;;29.00;91.70;;;;;;5031352;28;20225;-81
2022/08/11 10:28:30;;;;;;;5.57;2.10;;;29.30;90.70;;;;;;5035285;28;20745;-81
2022/08/11 10:33:59;;;;;;;4.53;2.22;;;29.20;90.80;;;;;;5035415;28;20187;-82
2022/08/11 10:36:47;;;;;;;2.40;2.15;;;29.30;90.60;;;;;;5035008;28;20163;-81
2022/08/11 10:39:16;;;;;;;11.15;3.22;;;29.40;90.10;;;;;;5033757;28;20156;-81
2022/08/11 10:44:40;;;;;;;10.48;2.90;;;29.40;90.20;;;;;;5034947;28;20210;-81
2022/08/11 11:00:57;;;;;;;5.18;2.58;;;29.90;89.40;;;;;;5034217;28;20197;-82
2022/08/11 11:03:28;;;;;;;12.32;2.40;;;30.00;88.90;;;;;;5032904;28;20175;-81
2022/08/11 11:06:07;;;;;;;4.88;1.95;;;29.80;88.40;;;;;;5034414;28;20199;-80
2022/08/11 11:08:54;;;;;;;10.20;2.50;;;29.80;89.00;;;;;;5034349;28;20214;-81
2022/08/11 11:17:54;;;;;;;13.85;2.28;;;29.70;89.50;;;;;;5034509;28;20183;-80
2022/08/11 11:19:44;;;;;;;3.97;1.90;;;30.00;86.90;;;;;;5034667;28;20217;-81
2022/08/11 11:25:00;;;;;;;2.63;2.30;;;30.10;86.90;;;;;;5034541;28;20190;-82
2022/08/11 11:27:51;;;;;;;2.35;2.00;;;30.20;86.30;;;;;;5033179;28;20167;-82
2022/08/11 11:30:18;;;;;;;8.20;2.42;;;30.30;86.30;;;;;;5032465;28;20214;-83
2022/08/11 11:32:58;;;;;;;15.27;2.47;;;30.40;85.90;;;;;;5033112;28;20183;-81
2022/08/11 11:35:48;;;;;;;4.82;1.70;;;30.30;86.50;;;;;;5032056;28;20240;-81
2022/08/11 11:38:15;;;;;;;2.58;2.38;;;30.30;85.90;;;;;;5033823;28;20662;-80
2022/08/11 11:40:41;;;;;;;10.73;2.58;;;30.30;86.00;;;;;;5033992;28;20180;-81
2022/08/11 11:43:06;;;;;;;5.00;2.00;;;30.30;86.00;;;;;;5033942;28;20259;-81
2022/08/11 11:45:32;;;;;;;18.33;2.67;;;30.30;86.70;;;;;;5033898;28;20691;-80
2022/08/11 11:47:59;;;;;;;5.90;2.50;;;30.50;85.40;;;;;;5032337;28;20674;-81
2022/08/11 11:50:28;;;;;;;5.82;2.35;;;30.50;85.80;;;;;;5033717;28;20281;-80
2022/08/11 11:52:54;;;;;;;4.55;2.00;;;30.50;85.20;;;;;;5032827;28;20167;-81
2022/08/11 11:55:22;;;;;;;2.13;1.92;;;30.50;84.60;;;;;;5035404;28;20302;-81
2022/08/11 12:03:19;;;;;;;7.55;2.45;;;30.50;84.50;;;;;;5033605;28;20233;-81
2022/08/11 12:05:46;;;;;;;5.97;2.05;;;30.50;84.30;;;;;;5033712;28;20163;-81
2022/08/11 12:08:16;;;;;;;14.05;2.60;;;30.70;84.90;;;;;;5032120;28;20513;-80
2022/08/11 12:13:44;;;;;;;8.32;2.35;;;30.80;84.50;;;;;;5033472;28;20178;-80
2022/08/11 12:16:13;;;;;;;8.00;2.53;;;30.80;85.10;;;;;;5033631;28;20163;-80
2022/08/11 12:18:40;;;;;;;4.80;2.40;;;30.80;83.90;;;;;;5033470;28;20171;-80
2022/08/11 12:21:08;;;;;;;4.85;2.50;;;30.60;82.40;;;;;;5033122;28;20532;-81
2022/08/11 12:29:06;;;;;;;3.25;2.35;;;30.80;82.70;;;;;;5033523;28;20214;-81
2022/08/11 12:31:33;;;;;;;2.78;2.30;;;30.90;82.10;;;;;;5033015;28;20189;-80
2022/08/11 12:34:04;;;;;;;6.00;2.20;;;31.00;82.20;;;;;;5033081;28;20175;-80
2022/08/11 12:36:39;;;;;;;4.15;1.65;;;31.00;82.60;;;;;;5033137;28;20159;-81
2022/08/11 12:39:07;;;;;;;3.05;2.30;;;30.90;82.20;;;;;;5032691;28;20588;-81
2022/08/11 12:47:09;;;;;;;2.65;2.38;;;31.30;78.40;;;;;;5032572;28;20202;-80
2022/08/11 12:52:32;;;;;;;5.43;1.90;;;31.30;77.10;;;;;;5032999;28;20178;-80
2022/08/11 12:55:09;;;;;;;1.88;1.77;;;31.30;76.70;;;;;;5031818;28;20181;-80
2022/08/11 13:06:01;;;;;;;21.20;1.88;;;31.30;76.40;;;;;;5032964;28;20205;-80
2022/08/11 13:08:28;;;;;;;7.97;1.70;;;31.20;76.40;;;;;;5031289;28;20694;-80
2022/08/11 13:13:42;;;;;;;10.63;1.83;;;31.20;76.20;;;;;;5032643;28;20205;-80
2022/08/11 13:16:09;;;;;;;3.50;1.85;;;31.30;76.50;;;;;;5031234;28;20172;-81
2022/08/11 13:18:36;;;;;;;7.07;2.20;;;31.40;76.30;;;;;;5032798;28;20177;-80
2022/08/11 13:21:02;;;;;;;9.60;1.92;;;31.40;75.30;;;;;;5048218;28;20180;-80
2022/08/11 13:23:29;;;;;;;5.50;1.90;;;31.30;75.60;;;;;;5045739;28;20260;-80
2022/08/11 13:25:55;;;;;;;5.72;1.83;;;31.20;75.40;;;;;;5044950;28;20233;-81
2022/08/11 13:28:21;;;;;;;3.63;1.80;;;31.10;75.30;;;;;;5045781;28;20286;-81
2022/08/11 13:33:39;;;;;;;3.10;1.70;;;31.10;74.70;;;;;;5051348;28;20238;-80
2022/08/11 13:36:06;;;;;;;6.18;1.70;;;31.20;74.80;;;;;;5032406;28;20217;-80
2022/08/11 13:38:32;;;;;;;11.90;1.90;;;31.40;74.00;;;;;;5035905;28;20156;-80
2022/08/11 13:40:59;;;;;;;8.55;1.73;;;31.50;73.90;;;;;;5032917;28;20206;-81
2022/08/11 13:43:26;;;;;;;3.13;1.83;;;31.40;74.80;;;;;;5033113;28;20172;-80
2022/08/11 13:46:17;;;;;;;2.38;2.00;;;31.40;74.40;;;;;;5031339;28;20229;-80
2022/08/11 13:48:40;;;;;;;7.07;1.83;;;31.40;74.30;;;;;;5032435;28;20207;-80
2022/08/11 13:53:51;;;;;;;2.63;2.03;;;31.20;74.90;;;;;;5032798;28;20230;-81
2022/08/11 13:56:18;;;;;;;9.50;2.33;;;31.30;75.00;;;;;;5032777;28;20251;-81
2022/08/11 13:58:44;;;;;;;3.65;1.70;;;31.30;74.50;;;;;;5035961;28;20171;-81
2022/08/11 14:01:10;;;;;;;16.67;2.10;;;31.40;74.80;;;;;;5036379;28;20229;-80
2022/08/11 14:03:41;;;;;;;6.70;1.70;;;31.40;73.80;;;;;;5036130;28;20234;-80
2022/08/11 14:06:08;;;;;;;2.25;1.80;;;31.50;74.00;;;;;;5036500;28;20677;-80
2022/08/11 14:08:37;;;;;;;8.55;1.58;;;31.30;74.00;;;;;;5035881;28;20209;-80
2022/08/11 14:13:52;;;;;;;2.70;2.42;;;31.30;74.20;;;;;;5024926;28;20555;-81
2022/08/11 14:16:30;;;;;;;13.57;1.80;;;31.20;74.80;;;;;;5035705;28;20527;-81
2022/08/11 14:19:03;;;;;;;7.97;2.85;;;31.20;74.30;;;;;;5036042;28;20651;-81
2022/08/11 14:24:17;;;;;;;3.38;1.85;;;31.50;73.40;;;;;;5036409;28;20232;-81
2022/08/11 14:26:45;;;;;;;5.55;1.83;;;31.40;73.60;;;;;;5036041;28;20164;-80
2022/08/11 14:29:18;;;;;;;6.82;2.15;;;31.40;74.70;;;;;;5049592;28;20203;-83
2022/08/11 14:31:46;;;;;;;6.75;1.83;;;31.50;74.70;;;;;;5054824;28;20165;-81
2022/08/11 14:34:13;;;;;;;3.33;1.90;;;31.40;75.00;;;;;;5058892;28;20163;-80
2022/08/11 14:36:50;;;;;;;8.48;1.80;;;31.50;75.10;;;;;;5058957;28;20181;-80
2022/08/11 14:39:20;;;;;;;8.57;1.95;;;31.60;73.50;;;;;;5058450;28;20171;-80
2022/08/11 14:47:42;;;;;;;2.13;1.92;;;31.40;73.70;;;;;;5039869;28;20263;-80
2022/08/11 14:50:16;;;;;;;4.72;1.90;;;31.50;73.50;;;;;;5041990;28;20437;-80
2022/08/11 14:52:48;;;;;;;3.47;1.88;;;31.50;73.70;;;;;;5037480;28;20160;-80
2022/08/11 14:58:01;;;;;;;13.23;2.35;;;31.80;74.30;;;;;;5036528;28;20205;-81
2022/08/11 15:00:27;;;;;;;7.88;2.05;;;31.70;73.90;;;;;;5035132;28;20201;-81
2022/08/11 15:03:09;;;;;;;4.45;1.90;;;31.80;73.70;;;;;;5034732;28;20164;-81
2022/08/11 15:05:49;;;;;;;5.28;2.17;;;31.70;74.00;;;;;;5034728;28;20178;-81
2022/08/11 15:08:16;;;;;;;4.93;1.88;;;31.50;73.60;;;;;;5034494;28;20211;-81
2022/08/11 15:10:42;;;;;;;5.28;1.90;;;31.60;74.60;;;;;;5034208;28;20179;-81
2022/08/11 15:13:09;;;;;;;5.32;2.10;;;31.70;73.40;;;;;;5034567;28;20544;-80
2022/08/11 15:18:23;;;;;;;5.75;1.95;;;31.70;74.40;;;;;;5034966;28;20229;-80
2022/08/11 15:37:25;;;;;;;12.57;2.72;;;31.50;73.70;;;;;;5034400;28;20178;-79
2022/08/11 15:37:35;;;;;;;6.80;2.08;;;31.60;74.40;;;;;;5034130;28;20229;-80
2022/08/11 15:46:00;;;;;;;2.22;2.00;;;31.50;73.60;;;;;;5034275;28;20202;-80
2022/08/11 15:48:34;;;;;;;6.88;2.33;;;31.40;73.70;;;;;;5031396;28;20210;-85
2022/08/11 15:51:11;;;;;;;2.33;2.13;;;31.50;73.70;;;;;;5010608;28;20620;-81
2022/08/11 15:53:50;;;;;;;3.15;2.20;;;31.50;74.30;;;;;;5019542;28;20216;-83
2022/08/11 15:56:17;;;;;;;11.65;2.55;;;31.50;73.70;;;;;;5017517;28;20259;-82
2022/08/11 16:04:23;;;;;;;2.00;1.80;;;31.50;73.90;;;;;;5023427;28;20210;-83
2022/08/11 16:07:03;;;;;;;10.55;2.25;;;31.50;72.90;;;;;;5031642;28;20172;-83
2022/08/11 16:09:34;;;;;;;6.18;2.63;;;31.40;73.60;;;;;;5029605;28;20753;-82
2022/08/11 16:12:08;;;;;;;5.82;2.28;;;31.30;73.00;;;;;;4992505;28;20564;-82
2022/08/11 16:17:33;;;;;;;6.38;2.00;;;31.30;72.70;;;;;;4994018;28;20539;-84
2022/08/11 16:20:00;;;;;;;12.32;1.80;;;31.30;71.50;;;;;;4997629;28;20295;-82
2022/08/11 16:22:35;;;;;;;2.58;2.22;;;31.30;71.20;;;;;;5012018;28;20252;-83
2022/08/11 16:25:07;;;;;;;6.70;2.53;;;31.30;72.20;;;;;;5027031;28;20559;-84
2022/08/11 16:27:39;;;;;;;5.72;2.05;;;31.30;72.70;;;;;;5033590;28;20164;-83
2022/08/11 16:30:05;;;;;;;3.40;1.58;;;31.30;73.30;;;;;;5032065;28;20213;-85
2022/08/11 16:32:33;;;;;;;3.22;2.10;;;31.30;71.60;;;;;;5032506;28;20167;-84
2022/08/11 16:40:57;;;;;;;3.58;2.63;;;31.20;70.80;;;;;;5010954;28;20202;-83
2022/08/11 16:49:01;;;;;;;2.63;2.00;;;31.10;71.00;;;;;;5033079;28;20352;-84
2022/08/11 16:51:29;;;;;;;2.58;2.22;;;31.00;70.40;;;;;;5031823;28;20210;-83
2022/08/11 16:53:55;;;;;;;2.10;1.90;;;31.00;70.80;;;;;;5031779;28;20171;-84
2022/08/11 16:56:27;;;;;;;1.80;1.70;;;31.00;70.40;;;;;;5031588;28;20274;-84
2022/08/11 16:59:13;;;;;;;3.00;1.83;;;31.00;70.30;;;;;;5032140;28;20169;-84
2022/08/11 17:01:59;;;;;;;6.15;2.17;;;31.00;70.70;;;;;;5035496;28;20197;-85
2022/08/11 17:13:10;;;;;;;9.80;2.28;;;30.90;71.10;;;;;;5033229;28;20697;-84
2022/08/11 17:16:11;;;;;;;5.78;2.08;;;30.90;71.80;;;;;;5033106;28;20168;-84
2022/08/11 17:18:41;;;;;;;1.90;1.67;;;30.90;70.50;;;;;;5026872;28;20304;-84
2022/08/11 17:21:20;;;;;;;4.93;2.00;;;30.80;69.70;;;;;;5010549;28;20691;-84
2022/08/11 17:24:05;;;;;;;13.80;1.80;;;30.80;69.70;;;;;;5014072;28;20180;-84
2022/08/11 17:26:57;;;;;;;10.93;2.00;;;30.60;70.50;;;;;;5015967;28;20543;-83
2022/08/11 17:29:49;;;;;;;11.85;2.35;;;30.70;69.90;;;;;;5013901;28;20204;-88
2022/08/11 17:35:29;;;;;;;9.52;1.90;;;30.70;70.30;;;;;;5018260;28;20187;-84
2022/08/11 17:38:05;;;;;;;1.60;1.50;;;30.60;70.50;;;;;;5019934;28;20175;-88
2022/08/11 17:40:35;;;;;;;3.10;2.25;;;30.60;70.80;;;;;;5015645;28;20195;-85
2022/08/11 17:48:40;;;;;;;2.15;1.80;;;30.30;70.40;;;;;;5031565;28;20633;-86
2022/08/11 17:51:09;;;;;;;4.28;1.92;;;30.30;71.00;;;;;;4998212;28;20730;-84
2022/08/11 18:04:48;;;;;;;2.97;2.70;;;30.20;71.30;;;;;;5036852;28;20533;-83
